Weather at Morsø Airfield, Tødsø

Public forecast

Using degrees Celsius for public forecast. Weather courtesy of forecast.io.

Closest aviation weather report (METAR) to Morsø Airfield, Tødsø

Report is more than 6 hours old.

Closest report is Karup Airport, 33.6 nm (62.1 km) SSE.

2022/11/14 15:20 (retrieved 2 years ago)

EKKA 141520Z AUTO 10006KT 9999 OVC011/// 09/07 Q1016 TEMPO BKN015

Closest aviation forecast (TAF) to Morsø Airfield, Tødsø

Forecast is more than 12 hours old.

Closest forecast is Karup Airport, 33.6 nm (62.1 km) SSE.

2023/02/22 18:00 Ammendment (retrieved 1 year ago)

TAF AMD EKKA 221757Z 2218/2318 12007KT 8000 SCT006 BKN030 TEMPO 2218/2301 2500 RADZ BR BKN004 BECMG 2301/2303 0300 FG RADZ BKN001 TEMPO 2303/2309 2000 BR BKN003 BECMG 2309/2311 29012KT 9999 NSW SCT020 TEMPO 2311/2315 BKN012